Time;durP1;ratioP1;P1;durP2;ratioP2;P2;SDS_P1;SDS_P2;PMS_P1;PMS_P2;Temp;Humidity;BMP_temperature;BMP_pressure;BME280_temperature;BME280_humidity;BME280_pressure;Samples;Min_cycle;Max_cycle;Signal;HPM_P1;HPM_P2
2023/04/25 00:02:05;;;;;;;1.75;0.80;;;;;;;;;;12979726;19;20514;-66
2023/04/25 00:06:26;;;;;;;1.13;0.90;;;;;;;;;;12980797;19;20062;-66
2023/04/25 00:10:44;;;;;;;2.05;0.68;;;;;;;;;;12981665;19;20038;-66
2023/04/25 00:15:02;;;;;;;0.63;0.63;;;;;;;;;;12980871;19;20473;-66
2023/04/25 00:19:20;;;;;;;2.35;0.88;;;;;;;;;;12980304;19;20015;-66
2023/04/25 00:23:38;;;;;;;1.50;0.90;;;;;;;;;;12979014;19;20120;-66
2023/04/25 00:27:56;;;;;;;1.20;0.95;;;;;;;;;;12980648;19;20012;-66
2023/04/25 00:32:14;;;;;;;1.42;0.77;;;;;;;;;;12979453;19;20331;-66
2023/04/25 00:36:32;;;;;;;1.35;0.88;;;;;;;;;;12980736;19;20032;-66
2023/04/25 00:40:50;;;;;;;1.48;1.00;;;;;;;;;;12979267;19;20026;-66
2023/04/25 00:45:12;;;;;;;0.93;0.80;;;;;;;;;;12979901;19;20025;-66
2023/04/25 00:49:30;;;;;;;1.00;0.90;;;;;;;;;;12977821;19;20466;-66
2023/04/25 00:53:49;;;;;;;2.25;1.10;;;;;;;;;;12979093;19;20025;-66
2023/04/25 00:58:08;;;;;;;2.65;1.00;;;;;;;;;;12978307;19;20014;-65
2023/04/25 01:02:26;;;;;;;2.53;0.90;;;;;;;;;;12979828;19;20015;-65
2023/04/25 01:06:45;;;;;;;2.03;1.20;;;;;;;;;;12978718;19;20477;-65
2023/04/25 01:11:04;;;;;;;2.08;1.48;;;;;;;;;;12977589;19;20018;-65
2023/04/25 01:15:21;;;;;;;1.80;1.30;;;;;;;;;;12978069;19;20028;-66
2023/04/25 01:19:39;;;;;;;1.98;1.20;;;;;;;;;;12989750;19;20030;-66
2023/04/25 01:23:57;;;;;;;2.13;1.00;;;;;;;;;;12989676;19;20018;-65
2023/04/25 01:28:15;;;;;;;1.98;0.93;;;;;;;;;;12990654;19;20232;-65
2023/04/25 01:32:38;;;;;;;2.65;1.00;;;;;;;;;;12989121;19;20498;-65
2023/04/25 01:36:55;;;;;;;1.45;1.17;;;;;;;;;;12991018;19;20022;-65
2023/04/25 01:41:14;;;;;;;1.50;1.00;;;;;;;;;;12988048;19;20011;-66
2023/04/25 01:45:32;;;;;;;1.60;1.30;;;;;;;;;;12988848;19;20532;-65
2023/04/25 01:49:50;;;;;;;1.75;1.23;;;;;;;;;;12990657;19;20025;-65
2023/04/25 01:54:09;;;;;;;1.63;1.13;;;;;;;;;;12989175;19;20023;-65
2023/04/25 01:58:27;;;;;;;2.00;1.55;;;;;;;;;;12990591;19;20025;-66
2023/04/25 02:02:45;;;;;;;2.47;1.83;;;;;;;;;;12990199;19;20018;-66
2023/04/25 02:07:03;;;;;;;3.17;1.80;;;;;;;;;;12988394;19;20011;-66
2023/04/25 02:11:22;;;;;;;2.42;1.75;;;;;;;;;;12989307;19;20010;-65
2023/04/25 02:15:40;;;;;;;2.95;2.10;;;;;;;;;;12987754;19;20029;-65
2023/04/25 02:19:59;;;;;;;5.90;1.88;;;;;;;;;;12988840;19;20010;-65
2023/04/25 02:24:17;;;;;;;2.88;1.67;;;;;;;;;;12988255;19;20363;-66
2023/04/25 02:28:34;;;;;;;3.75;2.30;;;;;;;;;;12986758;19;20022;-65
2023/04/25 02:32:52;;;;;;;3.30;1.73;;;;;;;;;;12987504;19;20457;-65
2023/04/25 02:37:10;;;;;;;2.22;1.83;;;;;;;;;;12987986;19;20014;-65
2023/04/25 02:41:28;;;;;;;;;;;;;;;;;;12987869;19;20034;-65
2023/04/25 02:45:46;;;;;;;2.63;1.92;;;;;;;;;;12987885;19;19911;-65
2023/04/25 02:50:04;;;;;;;3.28;2.00;;;;;;;;;;12987489;19;20010;-65
2023/04/25 02:54:22;;;;;;;3.30;2.00;;;;;;;;;;12986574;19;20055;-65
2023/04/25 02:58:40;;;;;;;3.45;2.13;;;;;;;;;;12986285;19;20025;-65
2023/04/25 03:02:57;;;;;;;4.00;2.50;;;;;;;;;;12985568;19;20027;-65
2023/04/25 03:07:15;;;;;;;4.28;1.98;;;;;;;;;;12966867;19;20134;-65
2023/04/25 03:11:33;;;;;;;2.75;2.30;;;;;;;;;;12975506;19;20105;-65
2023/04/25 03:15:50;;;;;;;5.93;2.90;;;;;;;;;;12974330;19;20628;-65
2023/04/25 03:20:10;;;;;;;2.95;2.10;;;;;;;;;;12976271;19;20015;-65
2023/04/25 03:24:28;;;;;;;3.65;2.47;;;;;;;;;;12978883;19;20078;-65
2023/04/25 03:28:45;;;;;;;2.55;2.10;;;;;;;;;;12977877;19;20620;-65
2023/04/25 03:33:03;;;;;;;2.65;2.00;;;;;;;;;;12976855;19;20367;-65
2023/04/25 03:37:21;;;;;;;2.80;2.20;;;;;;;;;;12977884;19;20018;-65
2023/04/25 03:41:38;;;;;;;3.20;2.22;;;;;;;;;;12974488;19;20018;-65
2023/04/25 03:45:56;;;;;;;3.30;2.25;;;;;;;;;;12976224;19;20011;-65
2023/04/25 03:50:14;;;;;;;;;;;;;;;;;;12977212;19;20774;-65
2023/04/25 03:54:32;;;;;;;4.03;2.65;;;;;;;;;;12977090;19;20015;-66
2023/04/25 03:58:49;;;;;;;3.70;2.35;;;;;;;;;;12977136;19;20125;-65
2023/04/25 04:03:07;;;;;;;4.53;2.83;;;;;;;;;;12976165;19;20014;-65
2023/04/25 04:07:25;;;;;;;;;;;;;;;;;;12977480;19;20014;-65
2023/04/25 04:11:43;;;;;;;2.85;1.90;;;;;;;;;;12976131;19;19919;-65
2023/04/25 04:16:01;;;;;;;2.17;1.80;;;;;;;;;;12974640;19;20032;-68
2023/04/25 04:20:19;;;;;;;1.80;1.35;;;;;;;;;;12975308;19;20026;-65
2023/04/25 04:24:36;;;;;;;2.78;1.80;;;;;;;;;;12975509;19;20031;-65
2023/04/25 04:28:54;;;;;;;3.20;1.80;;;;;;;;;;12974356;19;20547;-65
2023/04/25 04:33:13;;;;;;;3.22;1.88;;;;;;;;;;12974425;19;20123;-65
2023/04/25 04:37:31;;;;;;;2.13;1.50;;;;;;;;;;12975494;19;20022;-65
2023/04/25 04:41:48;;;;;;;1.60;1.15;;;;;;;;;;12973717;19;20875;-65
2023/04/25 04:46:06;;;;;;;3.05;1.27;;;;;;;;;;12973779;19;20014;-65
2023/04/25 04:50:24;;;;;;;1.67;1.00;;;;;;;;;;12974925;19;20900;-65
2023/04/25 04:54:41;;;;;;;2.45;1.30;;;;;;;;;;12986292;19;20019;-65
2023/04/25 04:58:59;;;;;;;1.05;0.95;;;;;;;;;;12985567;19;20125;-65
2023/04/25 05:03:17;;;;;;;1.95;1.13;;;;;;;;;;12985588;19;20031;-65
2023/04/25 05:07:35;;;;;;;1.52;1.13;;;;;;;;;;12986054;19;20014;-66
2023/04/25 05:11:53;;;;;;;2.20;1.10;;;;;;;;;;12986140;19;20888;-65
2023/04/25 05:16:12;;;;;;;2.90;2.47;;;;;;;;;;12984621;19;20031;-66
2023/04/25 05:20:30;;;;;;;1.75;1.17;;;;;;;;;;12985465;19;20054;-65
2023/04/25 05:24:48;;;;;;;1.67;0.82;;;;;;;;;;12985632;19;20098;-65
2023/04/25 05:29:06;;;;;;;;;;;;;;;;;;12985403;19;20018;-66
2023/04/25 05:33:23;;;;;;;3.58;1.42;;;;;;;;;;12984540;19;19923;-65
2023/04/25 05:37:41;;;;;;;1.88;1.25;;;;;;;;;;12983624;19;20010;-65
2023/04/25 05:41:58;;;;;;;2.22;1.60;;;;;;;;;;12982213;19;20070;-65
2023/04/25 05:46:16;;;;;;;2.95;1.30;;;;;;;;;;12982971;19;20029;-65
2023/04/25 05:50:35;;;;;;;3.22;1.60;;;;;;;;;;12983387;19;20026;-65
2023/04/25 05:54:52;;;;;;;;;;;;;;;;;;12983485;19;20022;-65
2023/04/25 05:59:10;;;;;;;3.78;1.60;;;;;;;;;;12981691;19;20525;-66
2023/04/25 06:03:28;;;;;;;1.70;1.25;;;;;;;;;;12981926;19;20043;-66
2023/04/25 06:07:46;;;;;;;2.72;1.63;;;;;;;;;;12983582;19;20770;-65
2023/04/25 06:12:04;;;;;;;3.70;1.52;;;;;;;;;;12981783;19;20082;-65
2023/04/25 06:16:21;;;;;;;3.50;1.58;;;;;;;;;;12978568;19;20038;-65
2023/04/25 06:20:39;;;;;;;2.70;1.60;;;;;;;;;;12972922;19;20022;-65
2023/04/25 06:24:58;;;;;;;4.88;1.60;;;;;;;;;;12975411;19;20082;-65
2023/04/25 06:29:16;;;;;;;2.15;1.60;;;;;;;;;;12981575;19;20006;-65
2023/04/25 06:33:34;;;;;;;1.58;1.45;;;;;;;;;;12981851;19;20018;-65
2023/04/25 06:37:51;;;;;;;3.10;1.50;;;;;;;;;;12982368;19;20348;-65
2023/04/25 06:42:09;;;;;;;4.43;1.73;;;;;;;;;;12980257;19;20007;-65
2023/04/25 06:46:27;;;;;;;2.58;1.67;;;;;;;;;;12981764;19;20022;-65
2023/04/25 06:50:45;;;;;;;2.25;1.52;;;;;;;;;;12981848;19;20022;-65
2023/04/25 06:55:04;;;;;;;5.95;1.75;;;;;;;;;;12980315;19;20902;-65
2023/04/25 06:59:22;;;;;;;3.45;2.20;;;;;;;;;;12980191;19;20052;-65
2023/04/25 07:03:40;;;;;;;3.38;1.90;;;;;;;;;;12980307;19;20473;-65
2023/04/25 07:07:58;;;;;;;2.55;1.30;;;;;;;;;;12979898;19;20428;-65
2023/04/25 07:12:15;;;;;;;2.30;1.65;;;;;;;;;;12979868;19;20021;-65
2023/04/25 07:16:33;;;;;;;3.85;1.63;;;;;;;;;;12979923;19;20010;-65
2023/04/25 07:20:51;;;;;;;4.88;2.25;;;;;;;;;;12980041;19;20826;-65
2023/04/25 07:25:09;;;;;;;4.80;1.75;;;;;;;;;;12978648;19;20023;-66
2023/04/25 07:29:29;;;;;;;2.22;1.70;;;;;;;;;;12979438;19;20031;-64
2023/04/25 07:33:47;;;;;;;3.70;2.00;;;;;;;;;;12977874;19;20010;-64
2023/04/25 07:38:06;;;;;;;3.92;2.38;;;;;;;;;;12977662;19;20019;-65
2023/04/25 07:42:24;;;;;;;5.15;2.20;;;;;;;;;;12976862;19;20055;-65
2023/04/25 07:46:44;;;;;;;4.43;2.28;;;;;;;;;;12977772;19;20515;-66
2023/04/25 07:51:04;;;;;;;6.60;1.98;;;;;;;;;;12977271;19;20019;-66
2023/04/25 07:55:24;;;;;;;4.03;2.17;;;;;;;;;;12977512;19;20011;-66
2023/04/25 07:59:42;;;;;;;7.03;2.03;;;;;;;;;;12977322;19;20131;-66
2023/04/25 08:04:00;;;;;;;;;;;;;;;;;;12978448;19;20911;-66
2023/04/25 08:08:18;;;;;;;2.22;1.70;;;;;;;;;;12977230;19;20319;-67
2023/04/25 08:12:35;;;;;;;2.40;1.75;;;;;;;;;;12976802;19;20010;-66
2023/04/25 08:16:53;;;;;;;3.60;1.85;;;;;;;;;;12976567;19;20031;-67
2023/04/25 08:21:12;;;;;;;3.42;1.67;;;;;;;;;;12976061;19;20027;-66
2023/04/25 08:25:29;;;;;;;3.60;2.13;;;;;;;;;;12977519;19;20818;-67
2023/04/25 08:29:47;;;;;;;4.93;2.10;;;;;;;;;;12988839;19;20031;-66
2023/04/25 08:34:05;;;;;;;2.90;1.65;;;;;;;;;;12985403;19;20042;-67
2023/04/25 08:38:23;;;;;;;3.78;2.28;;;;;;;;;;12988479;19;20055;-67
2023/04/25 08:42:45;;;;;;;6.28;1.77;;;;;;;;;;12987857;19;20014;-67
2023/04/25 08:47:04;;;;;;;3.95;1.90;;;;;;;;;;12987964;19;20056;-67
2023/04/25 08:51:27;;;;;;;4.68;1.95;;;;;;;;;;12987696;19;20421;-67
2023/04/25 08:55:46;;;;;;;6.55;2.25;;;;;;;;;;12988064;19;20018;-67
2023/04/25 09:00:07;;;;;;;3.28;1.77;;;;;;;;;;12987822;19;20119;-67
2023/04/25 09:04:25;;;;;;;2.40;1.80;;;;;;;;;;12987373;19;20031;-67
2023/04/25 09:08:43;;;;;;;4.00;2.17;;;;;;;;;;12986810;19;20015;-67
2023/04/25 09:13:12;;;;;;;2.33;1.80;;;;;;;;;;12984905;19;20027;-68
2023/04/25 09:17:30;;;;;;;3.43;1.87;;;;;;;;;;12986173;19;20032;-67
2023/04/25 09:21:53;;;;;;;3.08;1.77;;;;;;;;;;12985618;19;20109;-67
2023/04/25 09:26:18;;;;;;;3.75;2.08;;;;;;;;;;12985319;19;20010;-68
2023/04/25 09:30:36;;;;;;;2.38;1.50;;;;;;;;;;12986132;19;20596;-68
2023/04/25 09:34:56;;;;;;;5.40;3.03;;;;;;;;;;12986160;19;20023;-67
2023/04/25 09:39:15;;;;;;;3.90;2.42;;;;;;;;;;12980399;19;20695;-68
2023/04/25 09:43:32;;;;;;;4.18;2.10;;;;;;;;;;12985479;19;20048;-68
2023/04/25 09:47:56;;;;;;;2.60;1.60;;;;;;;;;;12984623;19;20749;-68
2023/04/25 09:52:17;;;;;;;2.65;1.30;;;;;;;;;;12984406;19;20082;-68
2023/04/25 09:56:37;;;;;;;4.22;2.35;;;;;;;;;;12984380;19;20074;-68
2023/04/25 10:01:01;;;;;;;3.85;2.35;;;;;;;;;;12984031;19;20042;-68
2023/04/25 10:05:19;;;;;;;4.28;1.67;;;;;;;;;;12984098;19;20023;-68
2023/04/25 10:09:39;;;;;;;4.70;1.65;;;;;;;;;;12982186;19;20014;-68
2023/04/25 10:14:00;;;;;;;7.22;2.45;;;;;;;;;;12983358;19;20048;-68
2023/04/25 10:18:19;;;;;;;3.35;1.40;;;;;;;;;;12982478;19;20819;-68
2023/04/25 10:22:43;;;;;;;2.95;1.60;;;;;;;;;;12981142;19;20014;-68
2023/04/25 10:27:02;;;;;;;5.40;1.70;;;;;;;;;;12980892;19;20010;-70
2023/04/25 10:31:20;;;;;;;2.50;1.42;;;;;;;;;;12983447;19;20453;-68
2023/04/25 10:35:38;;;;;;;2.15;1.23;;;;;;;;;;12981736;19;20014;-68
2023/04/25 10:39:56;;;;;;;5.70;1.83;;;;;;;;;;12980724;19;20066;-68
2023/04/25 10:44:15;;;;;;;6.18;3.67;;;;;;;;;;12981058;19;20014;-68
2023/04/25 10:48:34;;;;;;;7.57;2.45;;;;;;;;;;12985601;19;20007;-68
2023/04/25 10:52:53;;;;;;;2.03;1.20;;;;;;;;;;12986188;19;20848;-68
2023/04/25 10:57:36;;;;;;;3.60;1.60;;;;;;;;;;12985254;19;20018;-68
2023/04/25 11:01:55;;;;;;;3.97;1.98;;;;;;;;;;12985433;19;20715;-68
2023/04/25 11:06:29;;;;;;;2.83;1.40;;;;;;;;;;12984724;19;20033;-68
2023/04/25 11:10:47;;;;;;;1.58;1.10;;;;;;;;;;12983419;19;20015;-68
2023/04/25 11:15:08;;;;;;;4.40;1.42;;;;;;;;;;12983553;19;20014;-68
2023/04/25 11:19:27;;;;;;;1.90;1.05;;;;;;;;;;12984438;19;20002;-68
2023/04/25 11:23:46;;;;;;;3.75;1.98;;;;;;;;;;12983545;19;20019;-68
2023/04/25 11:28:04;;;;;;;2.15;1.40;;;;;;;;;;12983290;19;20017;-69
2023/04/25 11:32:21;;;;;;;1.80;1.15;;;;;;;;;;12984788;19;20026;-69
2023/04/25 11:36:41;;;;;;;3.67;1.50;;;;;;;;;;12983869;19;20272;-68
2023/04/25 11:40:58;;;;;;;4.05;1.30;;;;;;;;;;12982403;19;20010;-69
2023/04/25 11:45:18;;;;;;;1.67;1.00;;;;;;;;;;12983488;19;20014;-69
2023/04/25 11:49:36;;;;;;;1.08;0.98;;;;;;;;;;12980666;19;20390;-69
2023/04/25 11:53:53;;;;;;;1.10;0.75;;;;;;;;;;12982942;19;20059;-69
2023/04/25 11:58:13;;;;;;;1.38;1.05;;;;;;;;;;12981496;19;20339;-69
2023/04/25 12:02:31;;;;;;;2.45;1.05;;;;;;;;;;12979577;19;20006;-68
2023/04/25 12:06:53;;;;;;;1.23;0.93;;;;;;;;;;12982053;19;20010;-69
2023/04/25 12:11:21;;;;;;;1.73;1.10;;;;;;;;;;12981865;19;20604;-69
2023/04/25 12:15:40;;;;;;;4.35;1.20;;;;;;;;;;12981646;19;20014;-69
2023/04/25 12:19:58;;;;;;;1.35;0.90;;;;;;;;;;12982220;19;20014;-68
2023/04/25 12:24:23;;;;;;;2.28;1.63;;;;;;;;;;12981441;19;20018;-68
2023/04/25 12:28:46;;;;;;;2.92;1.20;;;;;;;;;;12982506;19;20010;-69
2023/04/25 12:33:04;;;;;;;5.25;2.10;;;;;;;;;;12981631;19;20039;-68
2023/04/25 12:37:22;;;;;;;2.25;1.25;;;;;;;;;;12981065;19;20471;-68
2023/04/25 12:41:40;;;;;;;4.40;1.60;;;;;;;;;;12979351;19;20014;-69
2023/04/25 12:45:57;;;;;;;2.00;1.00;;;;;;;;;;12980858;19;20030;-68
2023/04/25 12:50:16;;;;;;;4.65;1.30;;;;;;;;;;12979373;19;20015;-69
2023/04/25 12:54:34;;;;;;;4.07;1.90;;;;;;;;;;12980370;19;20015;-69
2023/04/25 12:58:52;;;;;;;3.15;1.30;;;;;;;;;;12980309;19;20528;-68
2023/04/25 13:03:10;;;;;;;3.40;1.50;;;;;;;;;;12979441;19;20023;-69
2023/04/25 13:07:30;;;;;;;6.50;2.08;;;;;;;;;;12980297;19;20582;-70
2023/04/25 13:11:48;;;;;;;2.17;1.02;;;;;;;;;;12982777;19;20010;-69
2023/04/25 13:16:08;;;;;;;3.05;1.38;;;;;;;;;;12990441;19;20023;-69
2023/04/25 13:20:25;;;;;;;3.35;1.23;;;;;;;;;;12991010;19;20379;-68
2023/04/25 13:24:43;;;;;;;4.00;2.10;;;;;;;;;;12990966;19;20359;-69
2023/04/25 13:29:03;;;;;;;2.92;1.15;;;;;;;;;;12989951;19;20014;-69
2023/04/25 13:33:21;;;;;;;5.65;2.00;;;;;;;;;;12990446;19;20039;-69
2023/04/25 13:37:40;;;;;;;6.22;2.03;;;;;;;;;;12990674;19;20018;-68
2023/04/25 13:41:57;;;;;;;4.38;1.73;;;;;;;;;;12988837;19;20011;-68
2023/04/25 13:46:15;;;;;;;6.82;2.55;;;;;;;;;;12990170;19;20006;-68
2023/04/25 13:50:53;;;;;;;;;;;;;;;;;;12990707;19;20014;-68
2023/04/25 13:55:11;;;;;;;5.23;2.10;;;;;;;;;;12989709;19;20279;-69
2023/04/25 13:59:29;;;;;;;8.13;2.22;;;;;;;;;;12989991;19;20010;-68
2023/04/25 14:03:46;;;;;;;4.25;2.10;;;;;;;;;;12989260;19;20533;-68
2023/04/25 14:08:06;;;;;;;3.10;1.60;;;;;;;;;;12988171;19;20582;-68
2023/04/25 14:12:25;;;;;;;4.45;1.98;;;;;;;;;;12989288;19;20390;-68
2023/04/25 14:16:42;;;;;;;;;;;;;;;;;;12989289;19;20031;-68
2023/04/25 14:21:00;;;;;;;2.58;1.70;;;;;;;;;;12987976;19;19919;-67
2023/04/25 14:25:18;;;;;;;4.50;1.80;;;;;;;;;;12986344;19;20006;-67
2023/04/25 14:29:38;;;;;;;2.92;1.60;;;;;;;;;;12987831;19;20018;-67
2023/04/25 14:33:55;;;;;;;4.28;1.83;;;;;;;;;;12988517;19;20512;-67
2023/04/25 14:38:16;;;;;;;4.38;2.42;;;;;;;;;;12986592;19;20010;-67
2023/04/25 14:42:34;;;;;;;4.22;2.45;;;;;;;;;;12986523;19;20015;-67
2023/04/25 14:46:51;;;;;;;4.25;1.88;;;;;;;;;;12986219;19;20014;-67
2023/04/25 14:51:10;;;;;;;3.60;1.63;;;;;;;;;;12985475;19;20021;-67
2023/04/25 14:55:28;;;;;;;4.05;2.08;;;;;;;;;;12985220;19;20018;-67
2023/04/25 14:59:45;;;;;;;;;;;;;;;;;;12986817;19;20006;-67
2023/04/25 15:04:03;;;;;;;5.03;2.20;;;;;;;;;;12984334;19;19918;-67
2023/04/25 15:08:21;;;;;;;3.15;1.73;;;;;;;;;;12984982;19;20465;-67
2023/04/25 15:12:40;;;;;;;3.90;1.83;;;;;;;;;;12985428;19;20481;-67
2023/04/25 15:16:57;;;;;;;4.00;2.15;;;;;;;;;;12984111;19;20019;-67
2023/04/25 15:21:15;;;;;;;9.73;4.13;;;;;;;;;;12984846;19;20021;-67
2023/04/25 15:25:33;;;;;;;4.88;2.28;;;;;;;;;;12984706;19;20007;-67
2023/04/25 15:29:51;;;;;;;4.70;2.42;;;;;;;;;;12984323;19;20025;-68
2023/04/25 15:34:08;;;;;;;10.27;5.13;;;;;;;;;;12983163;19;20010;-67
2023/04/25 15:38:26;;;;;;;6.78;4.18;;;;;;;;;;12981033;19;20018;-67
2023/04/25 15:42:46;;;;;;;7.65;3.20;;;;;;;;;;12981451;19;20030;-67
2023/04/25 15:47:04;;;;;;;14.55;6.82;;;;;;;;;;12981861;19;20007;-67
2023/04/25 15:51:22;;;;;;;6.18;3.83;;;;;;;;;;12982831;19;20018;-68
2023/04/25 15:55:40;;;;;;;7.70;3.28;;;;;;;;;;12981661;19;20014;-67
2023/04/25 15:59:57;;;;;;;4.50;1.90;;;;;;;;;;12982216;19;20018;-66
2023/04/25 16:04:15;;;;;;;6.68;2.47;;;;;;;;;;12981411;19;20382;-68
2023/04/25 16:08:34;;;;;;;3.55;1.80;;;;;;;;;;12982025;19;20474;-68
2023/04/25 16:12:52;;;;;;;1.80;1.50;;;;;;;;;;12982643;19;20018;-68
2023/04/25 16:17:10;;;;;;;9.35;2.17;;;;;;;;;;12980856;19;20023;-67
2023/04/25 16:21:27;;;;;;;4.13;1.95;;;;;;;;;;12979115;19;20042;-67
2023/04/25 16:25:45;;;;;;;3.83;1.80;;;;;;;;;;12981074;19;20006;-68
2023/04/25 16:30:08;;;;;;;8.13;3.28;;;;;;;;;;12979187;19;20453;-68
2023/04/25 16:34:26;;;;;;;10.48;4.85;;;;;;;;;;12980068;19;20006;-67
2023/04/25 16:38:44;;;;;;;4.00;1.63;;;;;;;;;;12979321;19;20006;-67
2023/04/25 16:43:02;;;;;;;4.50;1.70;;;;;;;;;;12977961;19;20015;-67
2023/04/25 16:47:20;;;;;;;5.45;2.13;;;;;;;;;;12983781;19;20018;-68
2023/04/25 16:51:37;;;;;;;3.38;2.00;;;;;;;;;;12992523;19;20383;-67
2023/04/25 16:55:55;;;;;;;9.65;5.55;;;;;;;;;;12991249;19;20024;-67
2023/04/25 17:00:14;;;;;;;6.93;2.92;;;;;;;;;;12991486;19;20449;-68
2023/04/25 17:04:31;;;;;;;4.78;2.28;;;;;;;;;;12991353;19;20021;-67
2023/04/25 17:08:49;;;;;;;5.47;2.25;;;;;;;;;;12991072;19;20627;-67
2023/04/25 17:13:08;;;;;;;4.80;2.50;;;;;;;;;;12990225;19;20030;-67
2023/04/25 17:17:26;;;;;;;6.05;3.92;;;;;;;;;;12990328;19;20022;-68
2023/04/25 17:21:44;;;;;;;9.02;4.47;;;;;;;;;;12990351;19;20038;-68
2023/04/25 17:26:02;;;;;;;3.75;2.20;;;;;;;;;;12988151;19;20022;-67
2023/04/25 17:30:20;;;;;;;10.63;4.93;;;;;;;;;;12989645;19;20027;-68
2023/04/25 17:34:38;;;;;;;7.80;3.58;;;;;;;;;;12990840;19;20006;-68
2023/04/25 17:38:56;;;;;;;5.03;2.90;;;;;;;;;;12989627;19;20034;-67
2023/04/25 17:43:14;;;;;;;9.45;4.03;;;;;;;;;;12987973;19;20020;-67
2023/04/25 17:47:33;;;;;;;15.45;7.25;;;;;;;;;;12989492;19;20089;-66
2023/04/25 17:51:50;;;;;;;;;;;;;;;;;;12989435;19;20018;-67
2023/04/25 17:56:09;;;;;;;4.45;2.70;;;;;;;;;;12986002;19;19938;-67
2023/04/25 18:00:42;;;;;;;6.82;4.85;;;;;;;;;;12985854;19;20018;-67
2023/04/25 18:05:00;;;;;;;7.80;4.45;;;;;;;;;;12988065;19;20492;-67
2023/04/25 18:09:22;;;;;;;13.27;7.07;;;;;;;;;;12987711;19;20018;-67
2023/04/25 18:13:40;;;;;;;19.45;10.68;;;;;;;;;;12988374;19;20007;-67
2023/04/25 18:17:58;;;;;;;14.45;9.45;;;;;;;;;;12985142;19;20677;-67
2023/04/25 18:22:16;;;;;;;;;;;;;;;;;;12987984;19;20015;-67
2023/04/25 18:26:34;;;;;;;8.45;4.85;;;;;;;;;;12987088;19;19945;-67
2023/04/25 18:30:53;;;;;;;7.05;4.00;;;;;;;;;;12986906;19;20010;-68
2023/04/25 18:35:11;;;;;;;7.13;3.80;;;;;;;;;;12985722;19;20017;-67
2023/04/25 18:39:29;;;;;;;13.35;4.70;;;;;;;;;;12983903;19;20438;-68
2023/04/25 18:43:47;;;;;;;20.77;8.02;;;;;;;;;;12986007;19;20014;-67
2023/04/25 18:48:06;;;;;;;15.30;5.57;;;;;;;;;;12985041;19;20015;-68
2023/04/25 18:52:25;;;;;;;13.73;5.13;;;;;;;;;;12985942;19;20014;-68
2023/04/25 18:56:42;;;;;;;18.73;7.47;;;;;;;;;;12985737;19;20454;-67
2023/04/25 19:01:00;;;;;;;16.58;7.78;;;;;;;;;;12985784;19;20556;-66
2023/04/25 19:05:18;;;;;;;15.88;7.40;;;;;;;;;;12985125;19;20031;-67
2023/04/25 19:09:36;;;;;;;9.40;4.88;;;;;;;;;;12984429;19;20342;-68
2023/04/25 19:13:55;;;;;;;12.05;5.45;;;;;;;;;;12984970;19;20014;-68
2023/04/25 19:18:13;;;;;;;9.25;4.72;;;;;;;;;;12982516;19;20014;-68
2023/04/25 19:22:34;;;;;;;23.33;10.57;;;;;;;;;;12983242;19;20022;-68
2023/04/25 19:26:53;;;;;;;26.52;11.38;;;;;;;;;;12983190;19;20046;-67
2023/04/25 19:31:14;;;;;;;14.18;7.05;;;;;;;;;;12982621;19;20011;-67
2023/04/25 19:35:32;;;;;;;13.82;7.30;;;;;;;;;;12983911;19;20019;-67
2023/04/25 19:39:50;;;;;;;;;;;;;;;;;;12982859;19;20022;-68
2023/04/25 19:44:08;;;;;;;12.50;6.70;;;;;;;;;;12982458;19;19929;-68
2023/04/25 19:48:28;;;;;;;15.23;7.95;;;;;;;;;;12983174;19;20441;-67
2023/04/25 19:52:46;;;;;;;14.03;6.87;;;;;;;;;;12979892;19;20478;-66
2023/04/25 19:57:03;;;;;;;12.77;5.43;;;;;;;;;;12980002;19;20018;-66
2023/04/25 20:01:21;;;;;;;11.38;5.20;;;;;;;;;;12981362;19;20034;-68
2023/04/25 20:05:39;;;;;;;11.75;5.18;;;;;;;;;;12981794;19;20025;-67
2023/04/25 20:09:56;;;;;;;8.98;5.35;;;;;;;;;;12981638;19;20030;-67
2023/04/25 20:14:14;;;;;;;11.73;6.32;;;;;;;;;;12981154;19;21229;-67
2023/04/25 20:18:32;;;;;;;10.00;5.10;;;;;;;;;;12980635;19;20010;-68
2023/04/25 20:22:50;;;;;;;12.68;4.40;;;;;;;;;;12987563;19;20007;-67
2023/04/25 20:27:08;;;;;;;7.43;4.18;;;;;;;;;;12993100;19;20334;-68
2023/04/25 20:31:26;;;;;;;11.55;4.47;;;;;;;;;;12993800;19;20014;-67
2023/04/25 20:35:45;;;;;;;8.98;4.78;;;;;;;;;;12993119;19;20063;-67
2023/04/25 20:40:06;;;;;;;16.00;6.82;;;;;;;;;;12990980;19;20031;-68
2023/04/25 20:44:24;;;;;;;15.98;6.40;;;;;;;;;;12992952;19;20419;-69
2023/04/25 20:48:42;;;;;;;14.20;6.40;;;;;;;;;;12991674;19;20015;-68
2023/04/25 20:53:00;;;;;;;13.23;5.35;;;;;;;;;;12992304;19;20014;-69
2023/04/25 20:57:17;;;;;;;10.52;5.10;;;;;;;;;;12990991;19;20026;-67
2023/04/25 21:01:35;;;;;;;14.05;4.07;;;;;;;;;;12992339;19;20018;-67
2023/04/25 21:05:53;;;;;;;10.82;3.97;;;;;;;;;;12992662;19;20010;-68
2023/04/25 21:10:12;;;;;;;10.10;4.53;;;;;;;;;;12991592;19;20021;-68
2023/04/25 21:14:30;;;;;;;6.65;3.78;;;;;;;;;;12991366;19;20011;-68
2023/04/25 21:18:48;;;;;;;8.38;2.53;;;;;;;;;;12990164;19;20461;-68
2023/04/25 21:23:06;;;;;;;6.30;2.70;;;;;;;;;;12971080;19;20022;-68
2023/04/25 21:27:24;;;;;;;6.90;3.17;;;;;;;;;;12990473;19;20017;-68
2023/04/25 21:31:42;;;;;;;3.63;2.35;;;;;;;;;;12990097;19;20006;-68
2023/04/25 21:36:00;;;;;;;7.72;3.20;;;;;;;;;;12989567;19;20339;-68
2023/04/25 21:40:18;;;;;;;6.03;2.42;;;;;;;;;;12987654;19;20011;-68
2023/04/25 21:44:36;;;;;;;5.57;2.15;;;;;;;;;;12989498;19;20010;-67
2023/04/25 21:48:54;;;;;;;6.80;2.83;;;;;;;;;;12989258;19;20040;-68
2023/04/25 21:53:12;;;;;;;8.15;2.67;;;;;;;;;;12988488;19;20485;-68
2023/04/25 21:57:29;;;;;;;4.93;2.13;;;;;;;;;;12988100;19;20011;-68
2023/04/25 22:01:47;;;;;;;6.72;3.35;;;;;;;;;;12989177;19;20021;-68
2023/04/25 22:06:05;;;;;;;4.93;2.47;;;;;;;;;;12989194;19;20970;-67
2023/04/25 22:10:24;;;;;;;5.63;1.88;;;;;;;;;;12988067;19;20014;-68
2023/04/25 22:14:43;;;;;;;4.60;2.00;;;;;;;;;;12988166;19;20516;-68
2023/04/25 22:19:01;;;;;;;3.28;2.05;;;;;;;;;;12986545;19;20027;-68
2023/04/25 22:23:18;;;;;;;4.68;2.42;;;;;;;;;;12987702;19;20481;-68
2023/04/25 22:27:39;;;;;;;4.00;2.03;;;;;;;;;;12987012;19;20505;-68
2023/04/25 22:31:57;;;;;;;6.10;2.80;;;;;;;;;;12987454;19;20014;-68
2023/04/25 22:36:16;;;;;;;6.50;2.38;;;;;;;;;;12985931;19;20007;-68
2023/04/25 22:40:34;;;;;;;7.88;2.65;;;;;;;;;;12985297;19;20050;-68
2023/04/25 22:44:52;;;;;;;4.50;2.05;;;;;;;;;;12985593;19;20018;-68
2023/04/25 22:49:10;;;;;;;4.47;1.85;;;;;;;;;;12986019;19;20412;-68
2023/04/25 22:53:29;;;;;;;5.72;2.15;;;;;;;;;;12986311;19;20025;-68
2023/04/25 22:57:47;;;;;;;8.20;2.63;;;;;;;;;;12985251;19;20438;-68
2023/04/25 23:02:06;;;;;;;8.10;2.47;;;;;;;;;;12984326;19;20010;-68
2023/04/25 23:06:24;;;;;;;3.78;1.95;;;;;;;;;;12984707;19;20020;-68
2023/04/25 23:10:42;;;;;;;4.35;2.33;;;;;;;;;;12984750;19;20334;-68
2023/04/25 23:15:02;;;;;;;5.32;1.83;;;;;;;;;;12984361;19;20591;-68
2023/04/25 23:19:20;;;;;;;4.50;1.98;;;;;;;;;;12984068;19;20021;-67
2023/04/25 23:23:38;;;;;;;6.53;2.10;;;;;;;;;;12983291;19;20018;-68
2023/04/25 23:27:56;;;;;;;;;;;;;;;;;;12984782;19;20339;-67
2023/04/25 23:32:13;;;;;;;7.43;2.33;;;;;;;;;;12982359;19;20320;-68
2023/04/25 23:36:31;;;;;;;6.43;2.97;;;;;;;;;;12983631;19;20579;-68
2023/04/25 23:40:49;;;;;;;4.10;1.83;;;;;;;;;;12982401;19;20010;-68
2023/04/25 23:45:08;;;;;;;7.90;2.35;;;;;;;;;;12982046;19;20364;-68
2023/04/25 23:49:26;;;;;;;;;;;;;;;;;;12982657;19;20010;-68
2023/04/25 23:53:45;;;;;;;4.30;1.70;;;;;;;;;;12982691;19;19928;-68
2023/04/25 23:58:03;;;;;;;3.78;1.50;;;;;;;;;;12977900;19;20015;-68
